sensor_id;sensor_type;location;lat;lon;timestamp;temperature;humidity
1137;DHT22;557;48.466;7.950;2022-07-30T00:00:54;19.80;1.00
1137;DHT22;557;48.466;7.950;2022-07-30T00:03:40;19.70;99.90
1137;DHT22;557;48.466;7.950;2022-07-30T00:06:26;19.70;1.00
1137;DHT22;557;48.466;7.950;2022-07-30T00:09:11;19.60;99.90
1137;DHT22;557;48.466;7.950;2022-07-30T00:11:57;19.60;1.00
1137;DHT22;557;48.466;7.950;2022-07-30T00:14:43;19.60;1.00
1137;DHT22;557;48.466;7.950;2022-07-30T00:17:30;19.50;99.90
1137;DHT22;557;48.466;7.950;2022-07-30T00:20:16;19.50;1.00
1137;DHT22;557;48.466;7.950;2022-07-30T00:23:03;19.40;99.90
1137;DHT22;557;48.466;7.950;2022-07-30T00:25:49;19.40;1.00
1137;DHT22;557;48.466;7.950;2022-07-30T00:28:34;19.30;1.00
1137;DHT22;557;48.466;7.950;2022-07-30T00:31:20;19.30;99.90
1137;DHT22;557;48.466;7.950;2022-07-30T00:34:07;19.30;1.00
1137;DHT22;557;48.466;7.950;2022-07-30T00:36:53;19.10;1.00
1137;DHT22;557;48.466;7.950;2022-07-30T00:39:38;19.10;1.00
1137;DHT22;557;48.466;7.950;2022-07-30T00:42:36;19.00;99.90
1137;DHT22;557;48.466;7.950;2022-07-30T00:45:22;19.00;99.90
1137;DHT22;557;48.466;7.950;2022-07-30T00:48:08;18.90;99.90
1137;DHT22;557;48.466;7.950;2022-07-30T00:50:55;18.90;99.90
1137;DHT22;557;48.466;7.950;2022-07-30T00:53:41;18.80;1.00
1137;DHT22;557;48.466;7.950;2022-07-30T00:56:27;18.70;1.00
1137;DHT22;557;48.466;7.950;2022-07-30T00:59:13;18.60;36.00
1137;DHT22;557;48.466;7.950;2022-07-30T01:01:59;18.50;99.90
1137;DHT22;557;48.466;7.950;2022-07-30T01:04:44;18.40;1.00
1137;DHT22;557;48.466;7.950;2022-07-30T01:07:32;18.20;1.00
1137;DHT22;557;48.466;7.950;2022-07-30T01:10:18;18.20;99.90
1137;DHT22;557;48.466;7.950;2022-07-30T01:13:04;18.20;75.10
1137;DHT22;557;48.466;7.950;2022-07-30T01:15:49;18.20;99.90
1137;DHT22;557;48.466;7.950;2022-07-30T01:18:36;18.10;1.00
1137;DHT22;557;48.466;7.950;2022-07-30T01:21:39;18.10;99.90
1137;DHT22;557;48.466;7.950;2022-07-30T01:24:35;18.00;99.90
1137;DHT22;557;48.466;7.950;2022-07-30T01:27:25;18.10;99.90
1137;DHT22;557;48.466;7.950;2022-07-30T01:30:16;18.00;1.00
1137;DHT22;557;48.466;7.950;2022-07-30T01:33:03;18.00;1.00
1137;DHT22;557;48.466;7.950;2022-07-30T01:35:50;18.00;1.00
1137;DHT22;557;48.466;7.950;2022-07-30T01:38:37;18.00;1.00
1137;DHT22;557;48.466;7.950;2022-07-30T01:41:25;17.90;1.00
1137;DHT22;557;48.466;7.950;2022-07-30T01:44:13;17.80;26.30
1137;DHT22;557;48.466;7.950;2022-07-30T01:47:00;17.80;99.90
1137;DHT22;557;48.466;7.950;2022-07-30T01:49:48;17.60;99.90
1137;DHT22;557;48.466;7.950;2022-07-30T01:52:36;17.60;99.90
1137;DHT22;557;48.466;7.950;2022-07-30T01:55:25;17.50;99.90
1137;DHT22;557;48.466;7.950;2022-07-30T01:58:12;17.40;99.90
1137;DHT22;557;48.466;7.950;2022-07-30T02:01:00;17.30;1.00
1137;DHT22;557;48.466;7.950;2022-07-30T02:03:46;17.30;1.00
1137;DHT22;557;48.466;7.950;2022-07-30T02:06:36;17.30;1.00
1137;DHT22;557;48.466;7.950;2022-07-30T02:09:27;17.20;1.00
1137;DHT22;557;48.466;7.950;2022-07-30T02:12:14;17.20;1.00
1137;DHT22;557;48.466;7.950;2022-07-30T02:15:17;17.20;1.00
1137;DHT22;557;48.466;7.950;2022-07-30T02:18:14;17.20;1.00
1137;DHT22;557;48.466;7.950;2022-07-30T02:21:05;17.00;1.00
1137;DHT22;557;48.466;7.950;2022-07-30T02:23:53;17.00;1.00
1137;DHT22;557;48.466;7.950;2022-07-30T02:26:41;17.00;1.00
1137;DHT22;557;48.466;7.950;2022-07-30T02:29:28;17.00;1.00
1137;DHT22;557;48.466;7.950;2022-07-30T02:32:19;16.90;1.00
1137;DHT22;557;48.466;7.950;2022-07-30T02:35:12;16.90;1.00
1137;DHT22;557;48.466;7.950;2022-07-30T02:37:59;16.80;1.00
1137;DHT22;557;48.466;7.950;2022-07-30T02:40:47;16.90;1.00
1137;DHT22;557;48.466;7.950;2022-07-30T02:43:34;16.90;1.00
1137;DHT22;557;48.466;7.950;2022-07-30T02:46:22;17.00;1.00
1137;DHT22;557;48.466;7.950;2022-07-30T02:49:09;17.00;1.00
1137;DHT22;557;48.466;7.950;2022-07-30T02:51:59;17.00;1.00
1137;DHT22;557;48.466;7.950;2022-07-30T02:54:47;17.00;1.00
1137;DHT22;557;48.466;7.950;2022-07-30T02:57:35;16.90;1.00
1137;DHT22;557;48.466;7.950;2022-07-30T03:00:23;16.70;1.00
1137;DHT22;557;48.466;7.950;2022-07-30T03:03:11;16.70;1.00
1137;DHT22;557;48.466;7.950;2022-07-30T03:05:58;16.60;1.00
1137;DHT22;557;48.466;7.950;2022-07-30T03:08:47;16.60;1.00
1137;DHT22;557;48.466;7.950;2022-07-30T03:11:33;16.50;1.00
1137;DHT22;557;48.466;7.950;2022-07-30T03:14:19;16.40;1.00
1137;DHT22;557;48.466;7.950;2022-07-30T03:17:06;16.40;1.00
1137;DHT22;557;48.466;7.950;2022-07-30T03:19:54;16.30;1.00
1137;DHT22;557;48.466;7.950;2022-07-30T03:22:42;16.30;1.00
1137;DHT22;557;48.466;7.950;2022-07-30T03:25:31;16.20;1.00
1137;DHT22;557;48.466;7.950;2022-07-30T03:28:17;16.10;1.00
1137;DHT22;557;48.466;7.950;2022-07-30T03:31:05;16.10;1.00
1137;DHT22;557;48.466;7.950;2022-07-30T03:33:51;16.10;1.00
1137;DHT22;557;48.466;7.950;2022-07-30T03:36:38;16.00;1.00
1137;DHT22;557;48.466;7.950;2022-07-30T03:39:25;16.00;1.00
1137;DHT22;557;48.466;7.950;2022-07-30T03:42:13;16.00;1.00
1137;DHT22;557;48.466;7.950;2022-07-30T03:45:00;16.00;1.00
1137;DHT22;557;48.466;7.950;2022-07-30T03:47:47;16.00;1.00
1137;DHT22;557;48.466;7.950;2022-07-30T03:50:34;16.00;1.00
1137;DHT22;557;48.466;7.950;2022-07-30T03:53:21;16.00;1.00
1137;DHT22;557;48.466;7.950;2022-07-30T03:56:08;16.00;1.00
1137;DHT22;557;48.466;7.950;2022-07-30T03:58:55;16.10;1.00
1137;DHT22;557;48.466;7.950;2022-07-30T04:01:41;16.10;1.00
1137;DHT22;557;48.466;7.950;2022-07-30T04:04:27;16.00;1.00
1137;DHT22;557;48.466;7.950;2022-07-30T04:07:13;16.00;1.00
1137;DHT22;557;48.466;7.950;2022-07-30T04:09:59;15.90;1.00
1137;DHT22;557;48.466;7.950;2022-07-30T04:12:45;16.00;1.00
1137;DHT22;557;48.466;7.950;2022-07-30T04:15:36;15.90;1.00
1137;DHT22;557;48.466;7.950;2022-07-30T04:18:26;15.90;1.00
1137;DHT22;557;48.466;7.950;2022-07-30T04:21:15;16.00;1.00
1137;DHT22;557;48.466;7.950;2022-07-30T04:24:03;16.00;1.00
1137;DHT22;557;48.466;7.950;2022-07-30T04:26:50;16.00;1.00
1137;DHT22;557;48.466;7.950;2022-07-30T04:29:36;16.10;1.00
1137;DHT22;557;48.466;7.950;2022-07-30T04:32:26;16.10;1.00
1137;DHT22;557;48.466;7.950;2022-07-30T04:35:11;16.10;1.00
1137;DHT22;557;48.466;7.950;2022-07-30T04:37:57;16.10;1.00
1137;DHT22;557;48.466;7.950;2022-07-30T04:40:43;16.00;1.00
1137;DHT22;557;48.466;7.950;2022-07-30T04:43:29;16.00;1.00
1137;DHT22;557;48.466;7.950;2022-07-30T04:46:15;16.00;4.60
1137;DHT22;557;48.466;7.950;2022-07-30T04:49:02;16.00;1.00
1137;DHT22;557;48.466;7.950;2022-07-30T04:51:48;16.00;1.00
1137;DHT22;557;48.466;7.950;2022-07-30T04:54:37;16.00;1.00
1137;DHT22;557;48.466;7.950;2022-07-30T04:57:26;16.10;1.00
1137;DHT22;557;48.466;7.950;2022-07-30T05:00:13;16.20;1.00
1137;DHT22;557;48.466;7.950;2022-07-30T05:02:59;16.20;1.00
1137;DHT22;557;48.466;7.950;2022-07-30T05:05:49;16.30;1.00
1137;DHT22;557;48.466;7.950;2022-07-30T05:08:35;16.50;1.00
1137;DHT22;557;48.466;7.950;2022-07-30T05:11:22;16.60;1.00
1137;DHT22;557;48.466;7.950;2022-07-30T05:14:08;16.80;1.00
1137;DHT22;557;48.466;7.950;2022-07-30T05:16:53;16.90;1.00
1137;DHT22;557;48.466;7.950;2022-07-30T05:19:39;17.00;1.00
1137;DHT22;557;48.466;7.950;2022-07-30T05:22:26;17.10;1.00
1137;DHT22;557;48.466;7.950;2022-07-30T05:25:13;17.20;1.00
1137;DHT22;557;48.466;7.950;2022-07-30T05:28:00;17.30;1.00
1137;DHT22;557;48.466;7.950;2022-07-30T05:30:46;17.40;1.00
1137;DHT22;557;48.466;7.950;2022-07-30T05:33:32;17.50;1.00
1137;DHT22;557;48.466;7.950;2022-07-30T05:36:18;17.60;1.00
1137;DHT22;557;48.466;7.950;2022-07-30T05:39:05;17.80;1.00
1137;DHT22;557;48.466;7.950;2022-07-30T05:41:51;17.90;99.90
1137;DHT22;557;48.466;7.950;2022-07-30T05:44:37;18.10;99.90
1137;DHT22;557;48.466;7.950;2022-07-30T05:47:22;18.20;58.10
1137;DHT22;557;48.466;7.950;2022-07-30T05:50:08;18.30;1.00
1137;DHT22;557;48.466;7.950;2022-07-30T05:52:54;18.30;1.00
1137;DHT22;557;48.466;7.950;2022-07-30T05:55:43;18.30;1.00
1137;DHT22;557;48.466;7.950;2022-07-30T05:58:28;18.40;1.00
1137;DHT22;557;48.466;7.950;2022-07-30T06:01:14;18.50;99.90
1137;DHT22;557;48.466;7.950;2022-07-30T06:04:00;18.70;99.90
1137;DHT22;557;48.466;7.950;2022-07-30T06:06:45;18.90;95.90
1137;DHT22;557;48.466;7.950;2022-07-30T06:09:32;19.00;99.90
1137;DHT22;557;48.466;7.950;2022-07-30T06:12:19;19.10;1.00
1137;DHT22;557;48.466;7.950;2022-07-30T06:15:06;19.20;99.90
1137;DHT22;557;48.466;7.950;2022-07-30T06:17:52;19.30;99.90
1137;DHT22;557;48.466;7.950;2022-07-30T06:20:38;19.40;99.90
1137;DHT22;557;48.466;7.950;2022-07-30T06:23:24;19.50;99.90
1137;DHT22;557;48.466;7.950;2022-07-30T06:26:10;19.70;1.00
1137;DHT22;557;48.466;7.950;2022-07-30T06:28:57;19.70;1.00
1137;DHT22;557;48.466;7.950;2022-07-30T06:31:43;19.90;1.00
1137;DHT22;557;48.466;7.950;2022-07-30T06:34:28;20.10;99.90
1137;DHT22;557;48.466;7.950;2022-07-30T06:37:14;20.10;1.00
1137;DHT22;557;48.466;7.950;2022-07-30T06:40:00;20.10;1.00
1137;DHT22;557;48.466;7.950;2022-07-30T06:42:45;20.30;99.90
1137;DHT22;557;48.466;7.950;2022-07-30T06:45:33;20.40;99.90
1137;DHT22;557;48.466;7.950;2022-07-30T06:48:19;20.50;99.90
1137;DHT22;557;48.466;7.950;2022-07-30T06:51:05;20.70;86.50
1137;DHT22;557;48.466;7.950;2022-07-30T06:53:51;20.90;1.00
1137;DHT22;557;48.466;7.950;2022-07-30T06:56:36;21.00;1.00
1137;DHT22;557;48.466;7.950;2022-07-30T06:59:22;21.10;1.00
1137;DHT22;557;48.466;7.950;2022-07-30T07:02:12;21.20;1.00
1137;DHT22;557;48.466;7.950;2022-07-30T07:04:57;21.30;1.00
1137;DHT22;557;48.466;7.950;2022-07-30T07:07:43;21.40;99.90
1137;DHT22;557;48.466;7.950;2022-07-30T07:10:29;21.50;99.90
1137;DHT22;557;48.466;7.950;2022-07-30T07:13:14;21.70;99.90
1137;DHT22;557;48.466;7.950;2022-07-30T07:16:00;21.80;99.90
1137;DHT22;557;48.466;7.950;2022-07-30T07:18:47;22.00;99.90
1137;DHT22;557;48.466;7.950;2022-07-30T07:21:33;22.20;99.90
1137;DHT22;557;48.466;7.950;2022-07-30T07:24:18;22.40;99.90
1137;DHT22;557;48.466;7.950;2022-07-30T07:27:04;22.60;99.90
1137;DHT22;557;48.466;7.950;2022-07-30T07:29:51;22.60;99.90
1137;DHT22;557;48.466;7.950;2022-07-30T07:32:37;22.70;99.90
1137;DHT22;557;48.466;7.950;2022-07-30T07:35:24;22.90;99.90
1137;DHT22;557;48.466;7.950;2022-07-30T07:38:10;23.10;99.90
1137;DHT22;557;48.466;7.950;2022-07-30T07:40:55;23.40;99.90
1137;DHT22;557;48.466;7.950;2022-07-30T07:43:42;23.50;99.90
1137;DHT22;557;48.466;7.950;2022-07-30T07:46:28;23.50;99.90
1137;DHT22;557;48.466;7.950;2022-07-30T07:49:13;23.60;99.90
1137;DHT22;557;48.466;7.950;2022-07-30T07:52:00;23.70;99.90
1137;DHT22;557;48.466;7.950;2022-07-30T07:54:46;23.90;99.90
1137;DHT22;557;48.466;7.950;2022-07-30T07:57:37;24.10;99.90
1137;DHT22;557;48.466;7.950;2022-07-30T08:00:23;24.20;99.90
1137;DHT22;557;48.466;7.950;2022-07-30T08:03:09;24.30;99.90
1137;DHT22;557;48.466;7.950;2022-07-30T08:05:55;24.40;99.90
1137;DHT22;557;48.466;7.950;2022-07-30T08:08:42;24.50;99.90
1137;DHT22;557;48.466;7.950;2022-07-30T08:11:28;24.40;99.90
1137;DHT22;557;48.466;7.950;2022-07-30T08:14:13;24.70;99.90
1137;DHT22;557;48.466;7.950;2022-07-30T08:16:59;24.90;92.40
1137;DHT22;557;48.466;7.950;2022-07-30T08:19:45;24.90;89.90
1137;DHT22;557;48.466;7.950;2022-07-30T08:22:31;25.00;91.20
1137;DHT22;557;48.466;7.950;2022-07-30T08:25:18;25.20;70.20
1137;DHT22;557;48.466;7.950;2022-07-30T08:28:04;25.20;59.80
1137;DHT22;557;48.466;7.950;2022-07-30T08:30:49;25.20;57.20
1137;DHT22;557;48.466;7.950;2022-07-30T08:33:35;25.20;50.30
1137;DHT22;557;48.466;7.950;2022-07-30T08:36:20;25.30;49.50
1137;DHT22;557;48.466;7.950;2022-07-30T08:39:06;25.50;47.70
1137;DHT22;557;48.466;7.950;2022-07-30T08:41:53;25.70;40.30
1137;DHT22;557;48.466;7.950;2022-07-30T08:44:40;25.70;38.20
1137;DHT22;557;48.466;7.950;2022-07-30T08:47:30;25.80;35.00
1137;DHT22;557;48.466;7.950;2022-07-30T08:50:17;25.70;26.60
1137;DHT22;557;48.466;7.950;2022-07-30T08:53:03;25.90;23.20
1137;DHT22;557;48.466;7.950;2022-07-30T08:55:50;25.90;22.70
1137;DHT22;557;48.466;7.950;2022-07-30T08:58:37;26.00;28.10
1137;DHT22;557;48.466;7.950;2022-07-30T09:01:23;26.00;14.40
1137;DHT22;557;48.466;7.950;2022-07-30T09:04:09;26.40;13.60
1137;DHT22;557;48.466;7.950;2022-07-30T09:06:55;26.50;5.00
1137;DHT22;557;48.466;7.950;2022-07-30T09:09:41;26.60;1.00
1137;DHT22;557;48.466;7.950;2022-07-30T09:12:34;26.80;1.00
1137;DHT22;557;48.466;7.950;2022-07-30T09:15:21;26.90;1.00
1137;DHT22;557;48.466;7.950;2022-07-30T09:18:08;26.90;1.00
1137;DHT22;557;48.466;7.950;2022-07-30T09:20:54;27.00;1.00
1137;DHT22;557;48.466;7.950;2022-07-30T09:23:54;27.50;1.00
1137;DHT22;557;48.466;7.950;2022-07-30T09:26:55;28.10;1.00
1137;DHT22;557;48.466;7.950;2022-07-30T09:29:41;27.90;1.00
1137;DHT22;557;48.466;7.950;2022-07-30T09:32:46;27.60;1.00
1137;DHT22;557;48.466;7.950;2022-07-30T09:35:32;27.40;1.00
1137;DHT22;557;48.466;7.950;2022-07-30T09:38:18;27.00;1.00
1137;DHT22;557;48.466;7.950;2022-07-30T09:41:04;27.10;1.00
1137;DHT22;557;48.466;7.950;2022-07-30T09:43:51;27.40;1.00
1137;DHT22;557;48.466;7.950;2022-07-30T09:46:40;27.50;1.00
1137;DHT22;557;48.466;7.950;2022-07-30T09:49:28;28.00;1.00
1137;DHT22;557;48.466;7.950;2022-07-30T09:52:26;28.30;1.00
1137;DHT22;557;48.466;7.950;2022-07-30T09:55:13;28.10;1.00
1137;DHT22;557;48.466;7.950;2022-07-30T09:58:00;28.60;1.00
1137;DHT22;557;48.466;7.950;2022-07-30T10:00:46;29.10;1.00
1137;DHT22;557;48.466;7.950;2022-07-30T10:03:32;29.10;1.00
1137;DHT22;557;48.466;7.950;2022-07-30T10:06:31;28.40;1.00
1137;DHT22;557;48.466;7.950;2022-07-30T10:09:24;28.10;1.00
1137;DHT22;557;48.466;7.950;2022-07-30T10:12:11;28.30;1.00
1137;DHT22;557;48.466;7.950;2022-07-30T10:15:00;28.60;1.00
1137;DHT22;557;48.466;7.950;2022-07-30T10:17:47;28.10;1.00
1137;DHT22;557;48.466;7.950;2022-07-30T10:20:33;27.60;1.00
1137;DHT22;557;48.466;7.950;2022-07-30T10:23:20;27.90;1.00
1137;DHT22;557;48.466;7.950;2022-07-30T10:26:08;28.10;1.00
1137;DHT22;557;48.466;7.950;2022-07-30T10:28:54;28.30;1.00
1137;DHT22;557;48.466;7.950;2022-07-30T10:31:41;28.70;1.00
1137;DHT22;557;48.466;7.950;2022-07-30T10:34:26;29.30;1.00
1137;DHT22;557;48.466;7.950;2022-07-30T10:37:13;29.80;1.00
1137;DHT22;557;48.466;7.950;2022-07-30T10:40:05;29.80;1.00
1137;DHT22;557;48.466;7.950;2022-07-30T10:46:22;29.80;1.00
1137;DHT22;557;48.466;7.950;2022-07-30T10:49:13;29.40;1.00
1137;DHT22;557;48.466;7.950;2022-07-30T10:51:58;29.40;1.00
1137;DHT22;557;48.466;7.950;2022-07-30T10:54:44;30.00;1.00
1137;DHT22;557;48.466;7.950;2022-07-30T10:57:32;29.40;1.00
1137;DHT22;557;48.466;7.950;2022-07-30T11:00:17;29.60;1.00
1137;DHT22;557;48.466;7.950;2022-07-30T11:03:21;29.80;1.00
1137;DHT22;557;48.466;7.950;2022-07-30T11:06:25;30.40;1.00
1137;DHT22;557;48.466;7.950;2022-07-30T11:09:34;30.20;1.00
1137;DHT22;557;48.466;7.950;2022-07-30T11:12:52;29.40;1.00
1137;DHT22;557;48.466;7.950;2022-07-30T11:15:53;28.90;1.00
1137;DHT22;557;48.466;7.950;2022-07-30T11:19:02;29.10;1.00
1137;DHT22;557;48.466;7.950;2022-07-30T11:22:22;29.50;1.00
1137;DHT22;557;48.466;7.950;2022-07-30T11:25:11;30.20;1.00
1137;DHT22;557;48.466;7.950;2022-07-30T11:28:36;30.50;1.00
1137;DHT22;557;48.466;7.950;2022-07-30T11:31:30;29.70;1.00
1137;DHT22;557;48.466;7.950;2022-07-30T11:34:26;29.70;1.00
1137;DHT22;557;48.466;7.950;2022-07-30T11:37:13;30.10;1.00
1137;DHT22;557;48.466;7.950;2022-07-30T11:40:11;29.70;1.00
1137;DHT22;557;48.466;7.950;2022-07-30T11:43:19;29.50;1.00
1137;DHT22;557;48.466;7.950;2022-07-30T11:46:08;28.70;1.00
1137;DHT22;557;48.466;7.950;2022-07-30T11:48:56;29.00;1.00
1137;DHT22;557;48.466;7.950;2022-07-30T11:51:43;28.90;1.00
1137;DHT22;557;48.466;7.950;2022-07-30T11:54:29;29.00;1.00
1137;DHT22;557;48.466;7.950;2022-07-30T11:57:15;29.10;1.00
1137;DHT22;557;48.466;7.950;2022-07-30T12:00:00;29.20;1.00
1137;DHT22;557;48.466;7.950;2022-07-30T12:02:48;29.90;1.00
1137;DHT22;557;48.466;7.950;2022-07-30T12:05:34;30.00;1.00
1137;DHT22;557;48.466;7.950;2022-07-30T12:08:21;29.90;1.00
1137;DHT22;557;48.466;7.950;2022-07-30T12:11:07;30.10;1.00
1137;DHT22;557;48.466;7.950;2022-07-30T12:13:55;29.70;1.00
1137;DHT22;557;48.466;7.950;2022-07-30T12:16:48;29.60;1.00
1137;DHT22;557;48.466;7.950;2022-07-30T12:19:43;30.20;1.00
1137;DHT22;557;48.466;7.950;2022-07-30T12:22:31;30.40;1.00
1137;DHT22;557;48.466;7.950;2022-07-30T12:25:17;30.80;1.00
1137;DHT22;557;48.466;7.950;2022-07-30T12:28:04;32.20;1.00
1137;DHT22;557;48.466;7.950;2022-07-30T12:30:50;32.60;1.00
1137;DHT22;557;48.466;7.950;2022-07-30T12:33:37;32.40;1.00
1137;DHT22;557;48.466;7.950;2022-07-30T12:36:26;31.90;1.00
1137;DHT22;557;48.466;7.950;2022-07-30T12:39:17;31.30;1.00
1137;DHT22;557;48.466;7.950;2022-07-30T12:42:04;30.80;1.00
1137;DHT22;557;48.466;7.950;2022-07-30T12:44:49;30.40;1.00
1137;DHT22;557;48.466;7.950;2022-07-30T12:47:35;30.30;1.00
1137;DHT22;557;48.466;7.950;2022-07-30T12:50:21;30.30;1.00
1137;DHT22;557;48.466;7.950;2022-07-30T12:53:08;30.90;1.00
1137;DHT22;557;48.466;7.950;2022-07-30T12:56:09;32.00;1.00
1137;DHT22;557;48.466;7.950;2022-07-30T12:58:57;32.40;1.00
1137;DHT22;557;48.466;7.950;2022-07-30T13:01:44;33.10;1.00
1137;DHT22;557;48.466;7.950;2022-07-30T13:04:32;33.50;1.00
1137;DHT22;557;48.466;7.950;2022-07-30T13:07:19;33.10;1.00
1137;DHT22;557;48.466;7.950;2022-07-30T13:10:08;32.80;1.00
1137;DHT22;557;48.466;7.950;2022-07-30T13:12:54;32.40;1.00
1137;DHT22;557;48.466;7.950;2022-07-30T13:15:40;32.20;1.00
1137;DHT22;557;48.466;7.950;2022-07-30T13:18:26;32.00;1.00
1137;DHT22;557;48.466;7.950;2022-07-30T13:21:12;32.20;1.00
1137;DHT22;557;48.466;7.950;2022-07-30T13:23:59;32.70;1.00
1137;DHT22;557;48.466;7.950;2022-07-30T13:26:47;33.10;1.00
1137;DHT22;557;48.466;7.950;2022-07-30T13:29:33;32.90;1.00
1137;DHT22;557;48.466;7.950;2022-07-30T13:32:18;33.00;1.00
1137;DHT22;557;48.466;7.950;2022-07-30T13:35:05;32.60;1.00
1137;DHT22;557;48.466;7.950;2022-07-30T13:37:51;32.40;1.00
1137;DHT22;557;48.466;7.950;2022-07-30T13:40:36;31.70;1.00
1137;DHT22;557;48.466;7.950;2022-07-30T13:43:24;31.40;1.00
1137;DHT22;557;48.466;7.950;2022-07-30T13:46:09;31.60;1.00
1137;DHT22;557;48.466;7.950;2022-07-30T13:48:55;31.90;1.00
1137;DHT22;557;48.466;7.950;2022-07-30T13:51:41;32.30;1.00
1137;DHT22;557;48.466;7.950;2022-07-30T13:54:27;31.90;1.00
1137;DHT22;557;48.466;7.950;2022-07-30T13:57:13;32.00;1.00
1137;DHT22;557;48.466;7.950;2022-07-30T14:00:00;32.50;1.00
1137;DHT22;557;48.466;7.950;2022-07-30T14:02:46;32.70;1.00
1137;DHT22;557;48.466;7.950;2022-07-30T14:05:31;32.20;1.00
1137;DHT22;557;48.466;7.950;2022-07-30T14:08:19;31.50;1.00
1137;DHT22;557;48.466;7.950;2022-07-30T14:11:05;30.60;1.00
1137;DHT22;557;48.466;7.950;2022-07-30T14:13:50;30.20;1.00
1137;DHT22;557;48.466;7.950;2022-07-30T14:16:37;30.30;1.00
1137;DHT22;557;48.466;7.950;2022-07-30T14:19:23;30.90;1.00
1137;DHT22;557;48.466;7.950;2022-07-30T14:22:09;31.30;1.00
1137;DHT22;557;48.466;7.950;2022-07-30T14:24:55;31.90;1.00
1137;DHT22;557;48.466;7.950;2022-07-30T14:27:40;32.00;1.00
1137;DHT22;557;48.466;7.950;2022-07-30T14:30:26;31.30;1.00
1137;DHT22;557;48.466;7.950;2022-07-30T14:33:15;30.10;1.00
1137;DHT22;557;48.466;7.950;2022-07-30T14:36:00;29.90;1.00
1137;DHT22;557;48.466;7.950;2022-07-30T14:38:46;29.90;1.00
1137;DHT22;557;48.466;7.950;2022-07-30T14:41:32;29.60;1.00
1137;DHT22;557;48.466;7.950;2022-07-30T14:44:18;29.30;1.00
1137;DHT22;557;48.466;7.950;2022-07-30T14:47:04;29.40;1.00
1137;DHT22;557;48.466;7.950;2022-07-30T14:49:51;30.40;1.00
1137;DHT22;557;48.466;7.950;2022-07-30T14:52:37;31.10;1.00
1137;DHT22;557;48.466;7.950;2022-07-30T14:55:23;31.60;1.00
1137;DHT22;557;48.466;7.950;2022-07-30T14:58:09;31.10;1.00
1137;DHT22;557;48.466;7.950;2022-07-30T15:00:55;31.00;1.00
1137;DHT22;557;48.466;7.950;2022-07-30T15:03:40;31.40;1.00
1137;DHT22;557;48.466;7.950;2022-07-30T15:06:28;31.80;1.00
1137;DHT22;557;48.466;7.950;2022-07-30T15:09:14;31.80;1.00
1137;DHT22;557;48.466;7.950;2022-07-30T15:12:00;31.80;1.00
1137;DHT22;557;48.466;7.950;2022-07-30T15:14:46;31.00;1.00
1137;DHT22;557;48.466;7.950;2022-07-30T15:17:33;30.30;1.00
1137;DHT22;557;48.466;7.950;2022-07-30T15:20:21;30.00;1.00
1137;DHT22;557;48.466;7.950;2022-07-30T15:23:08;29.60;1.00
1137;DHT22;557;48.466;7.950;2022-07-30T15:25:53;29.50;1.00
1137;DHT22;557;48.466;7.950;2022-07-30T15:28:39;29.60;1.00
1137;DHT22;557;48.466;7.950;2022-07-30T15:31:25;29.80;1.00
1137;DHT22;557;48.466;7.950;2022-07-30T15:34:11;29.90;1.00
1137;DHT22;557;48.466;7.950;2022-07-30T15:36:56;29.80;1.00
1137;DHT22;557;48.466;7.950;2022-07-30T15:39:43;29.90;1.00
1137;DHT22;557;48.466;7.950;2022-07-30T15:42:29;30.50;1.00
1137;DHT22;557;48.466;7.950;2022-07-30T15:45:15;31.20;1.00
1137;DHT22;557;48.466;7.950;2022-07-30T15:48:01;31.70;1.00
1137;DHT22;557;48.466;7.950;2022-07-30T15:50:47;31.70;1.00
1137;DHT22;557;48.466;7.950;2022-07-30T15:53:33;31.40;1.00
1137;DHT22;557;48.466;7.950;2022-07-30T15:56:20;31.30;1.00
1137;DHT22;557;48.466;7.950;2022-07-30T15:59:06;31.00;1.00
1137;DHT22;557;48.466;7.950;2022-07-30T16:01:52;30.40;1.00
1137;DHT22;557;48.466;7.950;2022-07-30T16:04:37;30.50;1.00
1137;DHT22;557;48.466;7.950;2022-07-30T16:07:23;30.60;1.00
1137;DHT22;557;48.466;7.950;2022-07-30T16:10:09;31.20;1.00
1137;DHT22;557;48.466;7.950;2022-07-30T16:12:57;31.60;1.00
1137;DHT22;557;48.466;7.950;2022-07-30T16:15:43;31.60;1.00
1137;DHT22;557;48.466;7.950;2022-07-30T16:18:29;31.60;1.00
1137;DHT22;557;48.466;7.950;2022-07-30T16:21:14;31.80;1.00
1137;DHT22;557;48.466;7.950;2022-07-30T16:24:01;31.30;1.00
1137;DHT22;557;48.466;7.950;2022-07-30T16:26:47;31.40;1.00
1137;DHT22;557;48.466;7.950;2022-07-30T16:29:35;31.60;1.00
1137;DHT22;557;48.466;7.950;2022-07-30T16:32:20;31.30;1.00
1137;DHT22;557;48.466;7.950;2022-07-30T16:35:07;30.90;1.00
1137;DHT22;557;48.466;7.950;2022-07-30T16:37:53;30.90;1.00
1137;DHT22;557;48.466;7.950;2022-07-30T16:40:40;31.10;1.00
1137;DHT22;557;48.466;7.950;2022-07-30T16:43:26;31.40;1.00
1137;DHT22;557;48.466;7.950;2022-07-30T16:46:16;31.40;1.00
1137;DHT22;557;48.466;7.950;2022-07-30T16:49:02;31.10;1.00
1137;DHT22;557;48.466;7.950;2022-07-30T16:51:48;31.20;1.00
1137;DHT22;557;48.466;7.950;2022-07-30T16:54:33;30.90;1.00
1137;DHT22;557;48.466;7.950;2022-07-30T16:57:19;30.60;1.00
1137;DHT22;557;48.466;7.950;2022-07-30T17:00:07;30.70;1.00
1137;DHT22;557;48.466;7.950;2022-07-30T17:02:54;30.60;1.00
1137;DHT22;557;48.466;7.950;2022-07-30T17:05:40;30.30;1.00
1137;DHT22;557;48.466;7.950;2022-07-30T17:08:26;30.10;1.00
1137;DHT22;557;48.466;7.950;2022-07-30T17:11:11;30.20;1.00
1137;DHT22;557;48.466;7.950;2022-07-30T17:13:57;30.20;1.00
1137;DHT22;557;48.466;7.950;2022-07-30T17:16:43;30.30;1.00
1137;DHT22;557;48.466;7.950;2022-07-30T17:19:30;30.40;1.00
1137;DHT22;557;48.466;7.950;2022-07-30T17:22:16;30.50;1.00
1137;DHT22;557;48.466;7.950;2022-07-30T17:25:02;30.40;1.00
1137;DHT22;557;48.466;7.950;2022-07-30T17:27:48;30.20;1.00
1137;DHT22;557;48.466;7.950;2022-07-30T17:30:33;29.90;1.00
1137;DHT22;557;48.466;7.950;2022-07-30T17:33:19;29.60;1.00
1137;DHT22;557;48.466;7.950;2022-07-30T17:36:07;29.50;1.00
1137;DHT22;557;48.466;7.950;2022-07-30T17:38:53;29.40;1.00
1137;DHT22;557;48.466;7.950;2022-07-30T17:41:38;29.20;1.00
1137;DHT22;557;48.466;7.950;2022-07-30T17:44:24;29.10;1.00
1137;DHT22;557;48.466;7.950;2022-07-30T17:47:10;29.00;1.00
1137;DHT22;557;48.466;7.950;2022-07-30T17:49:56;28.90;1.00
1137;DHT22;557;48.466;7.950;2022-07-30T17:52:43;28.90;1.00
1137;DHT22;557;48.466;7.950;2022-07-30T17:55:29;29.00;1.00
1137;DHT22;557;48.466;7.950;2022-07-30T17:58:18;28.90;1.00
1137;DHT22;557;48.466;7.950;2022-07-30T18:01:05;28.90;1.00
1137;DHT22;557;48.466;7.950;2022-07-30T18:03:51;28.90;1.00
1137;DHT22;557;48.466;7.950;2022-07-30T18:06:37;28.90;1.00
1137;DHT22;557;48.466;7.950;2022-07-30T18:09:24;28.80;1.00
1137;DHT22;557;48.466;7.950;2022-07-30T18:12:10;28.60;1.00
1137;DHT22;557;48.466;7.950;2022-07-30T18:14:56;28.40;1.00
1137;DHT22;557;48.466;7.950;2022-07-30T18:17:41;28.40;1.00
1137;DHT22;557;48.466;7.950;2022-07-30T18:20:27;28.30;1.00
1137;DHT22;557;48.466;7.950;2022-07-30T18:23:14;28.10;1.00
1137;DHT22;557;48.466;7.950;2022-07-30T18:26:04;28.00;1.00
1137;DHT22;557;48.466;7.950;2022-07-30T18:28:50;28.00;1.00
1137;DHT22;557;48.466;7.950;2022-07-30T18:31:36;27.90;1.00
1137;DHT22;557;48.466;7.950;2022-07-30T18:34:21;27.80;1.00
1137;DHT22;557;48.466;7.950;2022-07-30T18:37:07;27.70;1.00
1137;DHT22;557;48.466;7.950;2022-07-30T18:39:53;27.50;1.00
1137;DHT22;557;48.466;7.950;2022-07-30T18:42:40;27.40;1.00
1137;DHT22;557;48.466;7.950;2022-07-30T18:45:26;27.30;1.00
1137;DHT22;557;48.466;7.950;2022-07-30T18:48:13;27.30;1.00
1137;DHT22;557;48.466;7.950;2022-07-30T18:50:59;27.20;1.00